Newark, Indiana
Current Conditions -  °F | °C
As of 7:53 PM on Tuesday 21 Oct 2014 (Local Time) from KBMG Reporting Station
Overcast Overcast  
Wind Chill: 53°   Ceiling: 5500
Heat Index: 53°   Visibility: 10mi
Dew Point: 42°   Wind: 6mph
Humidity: 66%   Direction: 350°N
Pressure: 30.14"   Gusts: NA
Location:  39.1236°N, 86.7572°W
Report Text: KBMG 212353Z 35005KT 10SM OVC055 12/06 A3014 RMK AO2 SLP207 T01170056 10156 20117 53012 $
Loading
Personal Weather Stations






























Interactive Weather Map
Tropical Storm Tracking
New forecast layout! Learn more

10-Day Weather Forecast

Advertisements
Track Severe Weather on mobile